Lauderdale, Mississippi
Current Conditions -  °F | °C
As of 9:56 PM on Wednesday 17 Dec 2014 (Local Time) from KNMM Reporting Station
Overcast Overcast  
Wind Chill: 41°   Ceiling: 24000
Heat Index: 44°   Visibility: 10mi
Dew Point: 37°   Wind: 6mph
Humidity: 76%   Direction: 50°NE
Pressure: 30.22"   Gusts: NA
Location:  32.52°N, 88.51°W
Report Text: KNMM 180356Z 05005KT 10SM OVC240 07/03 A3022 RMK AO2 SLP246 T00670028
Loading
Personal Weather Stations






























Interactive Weather Map New forecast layout! Learn more

10-Day Weather Forecast

Advertisements
Track Severe Weather on mobile